Primrose, Texas
Current Conditions -  °F | °C
As of 2:53 AM on Saturday 22 Nov 2014 (Local Time) from KTYR Reporting Station
Overcast Overcast  
Wind Chill: 59°   Ceiling: 5000
Heat Index: 59°   Visibility: 10mi
Dew Point: 53°   Wind: 10mph
Humidity: 81%   Direction: 160°SSE
Pressure: 30.13"   Gusts: NA
Location:  32.416°N, 95.6606°W
Report Text: KTYR 220853Z AUTO 16009KT 10SM SCT025 OVC050 15/12 A3013 RMK AO2 SLP201 T01500117 58005
Loading
Personal Weather Stations






























Interactive Weather Map New forecast layout! Learn more

10-Day Weather Forecast

Advertisements
Track Severe Weather on mobile